Time;durP1;ratioP1;P1;durP2;ratioP2;P2;SDS_P1;SDS_P2;PMS_P1;PMS_P2;Temp;Humidity;BMP_temperature;BMP_pressure;BME280_temperature;BME280_humidity;BME280_pressure;Samples;Min_cycle;Max_cycle;Signal;HPM_P1;HPM_P2
2022/01/29 00:00:21;;;;;;;6.82;4.95;;;;;;;19.34;50.04;101864.69;4950015;28;20136;-42
2022/01/29 00:02:46;;;;;;;5.72;4.55;;;;;;;19.33;49.96;101865.69;4969149;28;20070;-42
2022/01/29 00:05:12;;;;;;;5.95;4.38;;;;;;;19.32;49.65;101869.31;4960135;28;20031;-40
2022/01/29 00:07:41;;;;;;;5.97;4.53;;;;;;;19.31;49.42;101874.75;4940494;28;20098;-39
2022/01/29 00:10:07;;;;;;;5.05;4.45;;;;;;;19.30;49.60;101873.94;4944510;28;20027;-41
2022/01/29 00:12:33;;;;;;;4.95;4.22;;;;;;;19.30;49.77;101873.94;4961895;28;20074;-43
2022/01/29 00:14:59;;;;;;;7.72;4.70;;;;;;;19.28;49.91;101875.94;4960506;28;20058;-41
2022/01/29 00:17:25;;;;;;;5.93;4.80;;;;;;;19.28;49.87;101883.84;4944049;28;20031;-41
2022/01/29 00:19:51;;;;;;;6.88;4.32;;;;;;;19.27;49.78;101873.44;4959348;28;20037;-40
2022/01/29 00:22:16;;;;;;;6.10;4.70;;;;;;;19.26;49.44;101877.91;4969334;28;20027;-42
2022/01/29 00:24:43;;;;;;;5.43;4.35;;;;;;;19.25;49.00;101876.25;4968462;28;20023;-40
2022/01/29 00:27:10;;;;;;;9.68;5.20;;;;;;;19.26;48.83;101882.38;4967454;28;20077;-41
2022/01/29 00:29:41;;;;;;;7.22;4.50;;;;;;;19.25;48.68;101875.44;4966372;28;20399;-39
2022/01/29 00:32:08;;;;;;;5.32;4.30;;;;;;;19.23;48.54;101872.97;4950916;28;20035;-40
2022/01/29 00:34:34;;;;;;;7.60;4.57;;;;;;;19.23;48.43;101873.78;4959334;28;20035;-42
2022/01/29 00:36:59;;;;;;;6.00;4.32;;;;;;;19.22;48.56;101866.03;4968345;28;20027;-40
2022/01/29 00:39:25;;;;;;;5.55;4.22;;;;;;;19.21;48.61;101854.63;4968799;28;20538;-40
2022/01/29 00:41:51;;;;;;;5.28;4.25;;;;;;;19.21;48.48;101856.44;4966887;28;20590;-43
2022/01/29 00:44:17;;;;;;;4.65;4.15;;;;;;;19.21;48.51;101859.91;4967975;28;20178;-40
2022/01/29 00:46:42;;;;;;;4.75;4.00;;;;;;;19.21;48.38;101859.09;4968484;28;20045;-39
2022/01/29 00:49:09;;;;;;;4.93;4.18;;;;;;;19.20;48.37;101860.91;4966029;28;20058;-44
2022/01/29 00:51:34;;;;;;;5.07;3.90;;;;;;;19.20;48.58;101868.00;4963231;28;20126;-40
2022/01/29 00:54:00;;;;;;;4.82;4.00;;;;;;;19.18;48.57;101876.09;4967839;28;20102;-42
2022/01/29 00:56:25;;;;;;;4.75;3.60;;;;;;;19.18;48.38;101884.03;4967951;28;20126;-42
2022/01/29 00:58:51;;;;;;;6.22;3.30;;;;;;;19.17;48.22;101881.53;4967799;28;20030;-40
2022/01/29 01:01:16;;;;;;;4.97;3.45;;;;;;;19.17;48.22;101886.81;4961511;28;20058;-42
2022/01/29 01:03:42;;;;;;;5.45;3.42;;;;;;;19.15;48.30;101892.28;4968589;28;20502;-40
2022/01/29 01:06:07;;;;;;;3.92;3.20;;;;;;;19.14;48.37;101889.81;4957973;28;20051;-42
2022/01/29 01:08:33;;;;;;;4.30;3.08;;;;;;;19.13;48.44;101893.44;4969302;28;20058;-42
2022/01/29 01:10:58;;;;;;;5.70;3.17;;;;;;;19.12;48.41;101902.34;4965159;28;20057;-42
2022/01/29 01:13:24;;;;;;;3.55;3.20;;;;;;;19.10;48.50;101891.94;4964646;28;20039;-40
2022/01/29 01:15:50;;;;;;;3.00;2.45;;;;;;;19.10;48.23;101893.75;4967157;28;20053;-42
2022/01/29 01:18:15;;;;;;;4.75;2.88;;;;;;;19.09;48.36;101892.13;4964865;28;20041;-44
2022/01/29 01:20:41;;;;;;;3.75;3.30;;;;;;;19.07;48.28;101896.72;4959812;28;20046;-42
2022/01/29 01:23:06;;;;;;;6.80;2.95;;;;;;;19.07;48.28;101899.38;4951192;28;20054;-40
2022/01/29 01:25:32;;;;;;;3.17;2.38;;;;;;;19.05;48.22;101907.47;4966132;28;20025;-41
2022/01/29 01:27:57;;;;;;;3.30;2.90;;;;;;;19.03;48.21;101898.88;4967667;28;20162;-40
2022/01/29 01:30:23;;;;;;;4.25;3.10;;;;;;;19.02;48.21;101891.94;4961582;28;20027;-43
2022/01/29 01:32:49;;;;;;;3.85;2.38;;;;;;;19.02;48.34;101885.84;4967798;28;20521;-42
2022/01/29 01:35:23;;;;;;;2.65;2.05;;;;;;;19.01;48.26;101894.75;4968324;28;20027;-40
2022/01/29 01:37:54;;;;;;;2.88;2.53;;;;;;;18.99;48.16;101897.56;4950671;28;20061;-43
2022/01/29 01:40:21;;;;;;;3.15;2.80;;;;;;;18.97;48.16;101899.53;4950261;28;20042;-40
2022/01/29 01:42:47;;;;;;;2.78;2.50;;;;;;;18.98;48.13;101895.06;4968669;28;20031;-43
2022/01/29 01:45:13;;;;;;;2.80;2.03;;;;;;;18.96;48.06;101892.59;4966398;28;20685;-42
2022/01/29 01:47:38;;;;;;;3.30;2.47;;;;;;;18.96;48.11;101889.97;4968560;28;20027;-40
2022/01/29 01:50:07;;;;;;;3.13;2.63;;;;;;;18.94;47.48;101894.59;4967180;28;20034;-41
2022/01/29 01:52:32;;;;;;;2.78;2.35;;;;;;;18.94;47.24;101894.59;4967877;28;20086;-39
2022/01/29 01:54:58;;;;;;;3.15;2.30;;;;;;;18.94;47.12;101888.47;4958981;28;20038;-39
2022/01/29 01:57:23;;;;;;;2.88;2.03;;;;;;;18.93;46.90;101892.09;4968444;28;20038;-43
2022/01/29 01:59:49;;;;;;;3.20;1.88;;;;;;;18.93;46.95;101900.84;4965201;28;20090;-39
2022/01/29 02:02:14;;;;;;;2.35;1.75;;;;;;;18.92;47.05;101890.44;4968558;28;20023;-41
2022/01/29 02:04:40;;;;;;;2.70;1.80;;;;;;;18.91;47.22;101892.25;4966993;28;20034;-39
2022/01/29 02:07:05;;;;;;;3.03;2.00;;;;;;;18.92;47.24;101901.84;4961987;28;20127;-44
2022/01/29 02:09:32;;;;;;;3.50;2.35;;;;;;;18.90;47.25;101902.00;4959881;28;20603;-40
2022/01/29 02:12:02;;;;;;;3.75;2.40;;;;;;;18.90;47.22;101903.84;4968989;23;20059;-41
2022/01/29 02:14:31;;;;;;;3.00;2.45;;;;;;;18.90;47.43;101901.22;4918899;29;20039;-39
2022/01/29 02:16:57;;;;;;;2.30;1.80;;;;;;;18.89;47.60;101907.47;4930767;29;20499;-42
2022/01/29 02:19:23;;;;;;;2.92;2.13;;;;;;;18.87;47.79;101899.72;4948106;29;20027;-39
2022/01/29 02:21:48;;;;;;;2.47;2.28;;;;;;;18.86;47.82;101900.72;4948419;29;20046;-41
2022/01/29 02:24:14;;;;;;;3.67;2.00;;;;;;;18.85;47.80;101912.25;4934124;29;20681;-42
2022/01/29 02:26:40;;;;;;;3.15;1.80;;;;;;;18.84;47.48;101909.78;4929189;29;20031;-42
2022/01/29 02:29:06;;;;;;;2.67;1.75;;;;;;;18.84;47.80;101913.25;4943378;29;20483;-43
2022/01/29 02:31:31;;;;;;;3.17;1.73;;;;;;;18.82;47.80;101909.94;4929035;29;20090;-42
2022/01/29 02:33:57;;;;;;;3.28;1.85;;;;;;;18.82;47.87;101903.84;4941385;29;20045;-39
2022/01/29 02:36:22;;;;;;;2.45;2.00;;;;;;;18.81;47.81;101913.56;4951807;29;20069;-43
2022/01/29 02:38:48;;;;;;;3.65;1.80;;;;;;;18.81;47.79;101916.22;4951562;29;20028;-41
2022/01/29 02:41:13;;;;;;;2.50;1.85;;;;;;;18.81;47.89;101924.13;4951852;29;20074;-42
2022/01/29 02:43:47;;;;;;;2.85;1.35;;;;;;;18.81;47.69;101923.31;4948216;29;20122;-39
2022/01/29 02:46:42;;;;;;;2.67;1.73;;;;;;;18.80;47.81;101924.28;4933336;29;20470;-40
2022/01/29 02:49:07;;;;;;;2.65;1.60;;;;;;;18.78;47.71;101927.09;4933900;29;20046;-44
2022/01/29 02:51:33;;;;;;;2.75;1.55;;;;;;;18.79;47.54;101930.56;4950650;29;20035;-41
2022/01/29 02:53:59;;;;;;;3.85;1.88;;;;;;;18.79;47.24;101927.94;4951130;29;20031;-43
2022/01/29 02:56:24;;;;;;;1.63;1.35;;;;;;;18.78;47.12;101927.09;4951220;29;20035;-41
2022/01/29 02:58:51;;;;;;;2.50;1.45;;;;;;;18.77;46.96;101929.91;4951031;29;20027;-42
2022/01/29 03:01:18;;;;;;;1.83;1.40;;;;;;;18.76;46.84;101929.06;4933772;29;20471;-40
2022/01/29 03:03:44;;;;;;;1.70;1.30;;;;;;;18.76;46.88;101929.06;4951536;29;20053;-42
2022/01/29 03:06:10;;;;;;;2.25;1.40;;;;;;;18.76;46.94;101926.44;4950552;29;20054;-41
2022/01/29 03:08:37;;;;;;;2.63;1.10;;;;;;;18.77;47.06;101935.19;4932420;29;20046;-40
2022/01/29 03:11:03;;;;;;;2.22;1.40;;;;;;;18.75;47.08;101922.16;4933597;29;20110;-40
2022/01/29 03:13:28;;;;;;;2.03;1.23;;;;;;;18.76;47.20;101920.34;4950696;29;20545;-40
2022/01/29 03:15:54;;;;;;;1.95;1.13;;;;;;;18.74;47.12;101924.94;4951140;29;20035;-39
2022/01/29 03:18:19;;;;;;;1.40;0.90;;;;;;;18.72;47.13;101930.38;4950964;29;20117;-42
2022/01/29 03:20:45;;;;;;;1.65;1.33;;;;;;;18.73;46.94;101933.84;4950011;29;20043;-42
2022/01/29 03:23:12;;;;;;;1.67;1.00;;;;;;;18.73;47.03;101928.56;4950679;29;20443;-41
2022/01/29 03:25:37;;;;;;;1.70;1.10;;;;;;;18.71;47.02;101930.56;4950985;29;20054;-39
2022/01/29 03:28:03;;;;;;;1.67;1.08;;;;;;;18.70;46.82;101920.97;4950871;29;20439;-42
2022/01/29 03:30:28;;;;;;;1.75;1.00;;;;;;;18.70;46.92;101918.34;4950595;29;20031;-40
2022/01/29 03:32:54;;;;;;;1.63;1.00;;;;;;;18.68;47.05;101921.13;4950682;29;20031;-42
2022/01/29 03:35:19;;;;;;;1.90;1.20;;;;;;;18.66;47.04;101928.41;4934424;29;20035;-42
2022/01/29 03:37:45;;;;;;;2.22;1.23;;;;;;;18.64;47.05;101927.72;4931747;29;20325;-40
2022/01/29 03:40:11;;;;;;;1.52;1.13;;;;;;;18.65;47.15;101931.19;4931285;29;20468;-41
2022/01/29 03:42:45;;;;;;;3.53;0.77;;;;;;;18.64;47.10;101929.53;4931213;29;20174;-42
2022/01/29 03:45:13;;;;;;;1.98;0.70;;;;;;;18.62;47.26;101920.97;4930455;29;20616;-39
2022/01/29 03:47:39;;;;;;;2.55;1.20;;;;;;;18.62;47.43;101920.97;4914194;29;20119;-40
2022/01/29 03:50:05;;;;;;;1.58;1.27;;;;;;;18.61;47.54;101930.69;4945983;29;20115;-42
2022/01/29 03:52:31;;;;;;;1.67;1.10;;;;;;;18.60;47.10;101914.97;4950028;29;20497;-39
2022/01/29 03:54:57;;;;;;;1.77;0.80;;;;;;;18.59;47.31;101916.78;4950260;29;20035;-41
2022/01/29 03:57:22;;;;;;;1.92;0.90;;;;;;;18.57;47.15;101911.69;4950438;29;20054;-42
2022/01/29 03:59:48;;;;;;;1.38;0.90;;;;;;;18.56;47.10;101917.13;4949144;29;20040;-41
2022/01/29 04:02:13;;;;;;;2.63;0.80;;;;;;;18.55;47.01;101920.75;4948803;29;20050;-42
2022/01/29 04:04:39;;;;;;;1.63;0.95;;;;;;;18.55;47.02;101926.03;4947523;29;20034;-42
2022/01/29 04:07:10;;;;;;;1.20;0.70;;;;;;;18.53;46.93;101925.34;4950329;29;20191;-39
2022/01/29 04:09:35;;;;;;;2.38;0.82;;;;;;;18.53;47.11;101933.28;4948452;29;20125;-41
2022/01/29 04:12:02;;;;;;;1.48;0.70;;;;;;;18.53;46.79;101928.00;4948060;29;20161;-41
2022/01/29 04:14:34;;;;;;;1.90;0.80;;;;;;;18.51;46.76;101924.69;4948663;29;20035;-42
2022/01/29 04:16:59;;;;;;;1.35;0.80;;;;;;;18.50;46.89;101931.78;4950056;29;20110;-39
2022/01/29 04:19:25;;;;;;;2.33;0.80;;;;;;;18.48;46.92;101925.00;4945841;29;20394;-40
2022/01/29 04:21:50;;;;;;;1.20;0.70;;;;;;;18.48;46.64;101930.28;4944592;29;20031;-40
2022/01/29 04:24:15;;;;;;;2.65;0.63;;;;;;;18.48;46.44;101932.94;4941062;29;20032;-40
2022/01/29 04:26:41;;;;;;;2.33;0.60;;;;;;;18.47;46.32;101926.00;4948724;29;20062;-43
2022/01/29 04:29:08;;;;;;;1.35;0.80;;;;;;;18.46;46.13;101926.97;4949782;29;20133;-42
2022/01/29 04:31:47;;;;;;;1.50;0.63;;;;;;;18.45;46.11;101923.50;4931461;29;20090;-41
2022/01/29 04:34:13;;;;;;;2.00;0.63;;;;;;;18.46;46.09;101921.69;4948807;29;20445;-40
2022/01/29 04:36:38;;;;;;;1.40;0.60;;;;;;;18.45;46.12;101920.88;4949415;29;20102;-42
2022/01/29 04:39:04;;;;;;;1.30;0.60;;;;;;;18.45;46.40;101926.16;4947909;29;20035;-42
2022/01/29 04:41:30;;;;;;;1.55;0.70;;;;;;;18.45;46.35;101926.16;4949144;29;20031;-40
2022/01/29 04:43:55;;;;;;;1.58;0.60;;;;;;;18.44;46.26;101926.31;4945427;29;20031;-40
2022/01/29 04:46:21;;;;;;;3.50;0.63;;;;;;;18.44;46.49;101926.31;4935626;29;20437;-42
2022/01/29 04:48:47;;;;;;;1.38;0.70;;;;;;;18.43;46.04;101922.06;4946605;29;20395;-43
2022/01/29 04:51:12;;;;;;;1.60;0.52;;;;;;;18.42;46.30;101925.69;4937030;29;20039;-40
2022/01/29 04:53:40;;;;;;;0.90;0.43;;;;;;;18.41;46.43;101921.38;4944394;29;20038;-41
2022/01/29 04:56:06;;;;;;;1.98;0.75;;;;;;;18.39;46.07;101923.34;4946592;28;20027;-39
2022/01/29 04:58:32;;;;;;;1.70;0.65;;;;;;;18.39;46.00;101912.81;4948724;29;20037;-42
2022/01/29 05:00:57;;;;;;;0.80;0.52;;;;;;;18.38;46.04;101919.06;4944087;29;20031;-43
2022/01/29 05:03:23;;;;;;;1.85;0.80;;;;;;;18.38;46.26;101925.16;4944534;29;20550;-40
2022/01/29 05:05:48;;;;;;;0.90;0.60;;;;;;;18.37;46.31;101925.31;4937144;29;20043;-41
2022/01/29 05:08:14;;;;;;;1.52;0.70;;;;;;;18.37;46.24;101928.78;4932250;29;20035;-42
2022/01/29 05:10:39;;;;;;;1.55;0.70;;;;;;;18.37;46.26;101923.50;4930689;29;20038;-42
2022/01/29 05:13:09;;;;;;;1.52;0.52;;;;;;;18.38;46.31;101929.63;4946640;29;20525;-39
2022/01/29 05:29:06;;;;;;;1.10;0.63;;;;;;;18.32;45.84;101930.25;4937791;29;20056;-39
2022/01/29 05:31:32;;;;;;;0.90;0.50;;;;;;;18.31;45.74;101933.88;4937312;29;20041;-41
2022/01/29 05:33:59;;;;;;;1.35;0.50;;;;;;;18.31;45.65;101936.50;4936920;29;20038;-41
2022/01/29 05:36:24;;;;;;;1.20;0.40;;;;;;;18.30;45.26;101937.50;4946228;29;20031;-44
2022/01/29 05:38:50;;;;;;;1.20;0.50;;;;;;;18.30;45.54;101930.41;4948392;29;20074;-41
2022/01/29 05:41:15;;;;;;;1.20;0.60;;;;;;;18.28;45.47;101935.03;4945841;29;20388;-43
2022/01/29 05:43:43;;;;;;;0.88;0.47;;;;;;;18.29;45.40;101939.31;4946139;29;20079;-42
2022/01/29 05:46:10;;;;;;;2.45;0.50;;;;;;;18.28;45.27;101947.38;4937817;29;20367;-43
2022/01/29 05:48:35;;;;;;;1.20;0.40;;;;;;;18.27;45.61;101945.72;4947925;29;20035;-43
2022/01/29 05:51:01;;;;;;;0.90;0.40;;;;;;;18.27;45.30;101953.66;4947087;29;20446;-41
2022/01/29 05:53:26;;;;;;;1.38;0.60;;;;;;;18.26;45.29;101957.28;4948090;29;20031;-46
2022/01/29 05:55:52;;;;;;;3.53;0.50;;;;;;;18.26;45.08;101957.28;4946621;29;20416;-43
2022/01/29 05:58:17;;;;;;;0.93;0.50;;;;;;;18.24;45.15;101952.97;4947326;29;20035;-41
2022/01/29 06:00:43;;;;;;;1.25;0.50;;;;;;;18.24;45.56;101952.97;4942433;29;20078;-40
2022/01/29 06:03:09;;;;;;;1.10;0.52;;;;;;;18.22;45.58;101946.22;4931320;29;20364;-42
2022/01/29 06:05:36;;;;;;;1.00;0.43;;;;;;;18.20;45.59;101949.00;4934454;29;20385;-39
2022/01/29 06:08:02;;;;;;;1.02;0.57;;;;;;;18.20;45.57;101956.91;4933791;29;20340;-42
2022/01/29 06:10:27;;;;;;;1.98;0.50;;;;;;;18.19;45.67;101952.63;4948171;29;20284;-40
2022/01/29 06:13:00;;;;;;;1.48;0.77;;;;;;;18.19;45.60;101957.91;4949512;29;20106;-40
2022/01/29 06:15:27;;;;;;;1.83;0.57;;;;;;;18.20;46.33;101959.56;4950209;28;20047;-39
2022/01/29 06:17:52;;;;;;;3.65;0.70;;;;;;;18.20;46.91;101970.09;4951807;29;20499;-42
2022/01/29 06:20:18;;;;;;;1.90;0.63;;;;;;;18.23;46.99;101968.97;4947549;29;20046;-40
2022/01/29 06:22:43;;;;;;;1.20;0.60;;;;;;;18.24;46.96;101974.09;4951293;29;20034;-39
2022/01/29 06:25:09;;;;;;;1.95;0.85;;;;;;;18.28;47.05;101973.78;4945255;29;20038;-41
2022/01/29 06:27:34;;;;;;;1.92;0.82;;;;;;;18.31;47.19;101986.66;4951913;29;20178;-40
2022/01/29 06:30:00;;;;;;;2.25;0.82;;;;;;;18.33;47.33;101980.22;4950961;29;20227;-42
2022/01/29 06:32:26;;;;;;;1.80;0.77;;;;;;;18.37;47.54;101988.66;4951893;29;20387;-45
2022/01/29 06:34:51;;;;;;;2.92;0.80;;;;;;;18.39;47.67;101986.69;4944774;29;20036;-41
2022/01/29 06:37:16;;;;;;;1.48;0.85;;;;;;;18.43;48.03;101993.31;4932488;29;20384;-40
2022/01/29 06:39:42;;;;;;;1.75;0.77;;;;;;;18.46;48.21;101998.22;4949092;29;20327;-42
2022/01/29 06:42:07;;;;;;;2.20;0.80;;;;;;;18.50;48.28;102004.84;4950801;29;20035;-43
2022/01/29 06:44:33;;;;;;;2.40;1.17;;;;;;;18.53;48.16;102002.72;4945902;29;20035;-39
2022/01/29 06:46:58;;;;;;;1.45;0.80;;;;;;;18.59;47.98;102017.09;4932617;29;20028;-40
2022/01/29 06:49:24;;;;;;;3.13;0.70;;;;;;;18.63;47.72;102013.19;4942903;29;20066;-42
2022/01/29 06:51:49;;;;;;;1.73;0.90;;;;;;;18.68;47.71;102004.78;4950455;29;20034;-42
2022/01/29 06:54:15;;;;;;;1.45;0.60;;;;;;;18.74;47.64;102006.78;4950921;29;20023;-42
2022/01/29 06:56:40;;;;;;;3.05;0.70;;;;;;;18.78;47.60;102011.59;4949645;29;20055;-39
2022/01/29 06:59:06;;;;;;;2.15;0.70;;;;;;;18.84;47.62;102016.22;4929674;29;20039;-39
2022/01/29 07:01:31;;;;;;;1.83;1.00;;;;;;;18.87;47.64;102005.34;4940566;29;20047;-39
2022/01/29 07:03:57;;;;;;;3.15;0.52;;;;;;;18.89;47.48;102013.94;4945903;29;20044;-42
2022/01/29 07:06:22;;;;;;;1.33;0.60;;;;;;;18.93;47.42;102018.88;4944091;29;20035;-42
2022/01/29 07:08:48;;;;;;;1.38;0.70;;;;;;;18.95;47.51;102019.53;4949320;29;20027;-39
2022/01/29 07:11:18;;;;;;;1.50;0.73;;;;;;;18.96;47.46;102014.09;4949291;29;20591;-40
2022/01/29 07:13:44;;;;;;;2.65;0.93;;;;;;;18.98;47.48;102016.56;4948134;29;20135;-41
2022/01/29 07:16:09;;;;;;;1.00;0.50;;;;;;;19.00;47.42;102017.22;4947981;29;20225;-38
2022/01/29 07:18:35;;;;;;;1.20;0.65;;;;;;;19.03;47.45;102030.13;4949323;28;20110;-40
2022/01/29 07:21:00;;;;;;;1.23;0.57;;;;;;;19.04;47.27;102018.56;4950529;29;20076;-42
2022/01/29 07:23:26;;;;;;;1.20;0.50;;;;;;;19.04;47.39;102014.09;4950865;29;20023;-39
2022/01/29 07:25:51;;;;;;;1.02;0.50;;;;;;;19.07;47.16;102018.25;4946843;29;20609;-39
2022/01/29 07:28:17;;;;;;;1.20;0.60;;;;;;;19.10;47.07;102024.03;4950000;29;20039;-41
2022/01/29 07:30:42;;;;;;;0.80;0.50;;;;;;;19.12;47.11;102029.16;4947425;29;20067;-43
2022/01/29 07:33:08;;;;;;;0.90;0.50;;;;;;;19.14;46.86;102022.72;4946248;29;20332;-42
2022/01/29 07:35:33;;;;;;;0.95;0.40;;;;;;;19.16;46.85;102031.31;4944578;29;20416;-44
2022/01/29 07:37:58;;;;;;;1.83;0.60;;;;;;;19.18;46.77;102039.06;4950315;29;20035;-40
2022/01/29 07:40:24;;;;;;;2.03;0.57;;;;;;;19.20;46.62;102040.56;4946124;29;20344;-40
2022/01/29 07:42:49;;;;;;;1.38;0.50;;;;;;;19.23;46.47;102044.69;4939659;29;20032;-40
2022/01/29 07:45:15;;;;;;;1.75;0.40;;;;;;;19.25;46.40;102053.28;4934939;29;20066;-42
2022/01/29 07:47:41;;;;;;;1.40;0.60;;;;;;;19.26;46.34;102041.72;4941923;29;20027;-40
2022/01/29 07:50:06;;;;;;;0.80;0.40;;;;;;;19.28;46.20;102037.09;4943914;29;20117;-41
2022/01/29 07:52:32;;;;;;;1.98;0.70;;;;;;;19.29;46.06;102030.84;4948950;29;20406;-45
2022/01/29 07:54:57;;;;;;;0.90;0.40;;;;;;;19.31;45.53;102036.78;4938349;29;20028;-39
2022/01/29 07:57:23;;;;;;;1.55;0.40;;;;;;;19.32;45.80;102034.97;4941247;29;20491;-41
2022/01/29 07:59:48;;;;;;;1.67;0.57;;;;;;;19.34;45.59;102035.63;4947793;29;20065;-41
2022/01/29 08:02:14;;;;;;;0.93;0.35;;;;;;;19.37;45.26;102038.78;4944175;28;20031;-41
2022/01/29 08:04:39;;;;;;;1.73;0.40;;;;;;;19.40;45.10;102043.72;4935591;29;20136;-42
2022/01/29 08:07:05;;;;;;;1.00;0.50;;;;;;;19.42;44.98;102047.00;4934924;29;20073;-39
2022/01/29 08:09:30;;;;;;;2.15;0.35;;;;;;;19.42;44.96;102040.91;4942427;29;20207;-40
2022/01/29 08:11:55;;;;;;;1.08;0.40;;;;;;;19.45;44.83;102056.44;4947713;29;20031;-43
2022/01/29 08:14:21;;;;;;;0.95;0.40;;;;;;;19.46;44.70;102047.50;4939267;29;20074;-43
2022/01/29 08:16:46;;;;;;;1.23;0.50;;;;;;;19.47;44.44;102055.28;4934277;29;20039;-39
2022/01/29 08:19:12;;;;;;;1.45;0.52;;;;;;;19.50;44.43;102054.13;4942618;29;20650;-43
2022/01/29 08:21:38;;;;;;;2.10;0.40;;;;;;;19.51;44.25;102051.34;4942353;29;20027;-44
2022/01/29 08:24:08;;;;;;;0.77;0.40;;;;;;;19.52;44.28;102055.66;4945349;29;20311;-40
2022/01/29 08:26:34;;;;;;;0.98;0.55;;;;;;;19.53;44.32;102052.00;4936913;28;20569;-43
2022/01/29 08:29:00;;;;;;;0.80;0.40;;;;;;;19.54;44.08;102056.31;4946307;28;20887;-40
2022/01/29 08:31:25;;;;;;;1.30;0.55;;;;;;;19.57;44.21;102064.91;4930526;29;20122;-41
2022/01/29 08:33:51;;;;;;;1.75;0.40;;;;;;;19.57;44.16;102059.63;4947235;29;20222;-40
2022/01/29 08:36:16;;;;;;;0.80;0.30;;;;;;;19.59;44.19;102060.28;4935095;29;20036;-42
2022/01/29 08:38:42;;;;;;;0.73;0.35;;;;;;;19.60;43.98;102065.41;4931331;29;20055;-40
2022/01/29 08:41:07;;;;;;;1.00;0.30;;;;;;;19.62;43.81;102063.41;4944536;29;20101;-39
2022/01/29 08:43:33;;;;;;;0.88;0.40;;;;;;;19.63;43.78;102064.25;4944223;29;20039;-40
2022/01/29 08:45:59;;;;;;;0.82;0.30;;;;;;;19.64;43.90;102068.53;4910299;29;20590;-42
2022/01/29 08:48:25;;;;;;;0.80;0.30;;;;;;;19.65;43.69;102064.91;4942190;29;20031;-42
2022/01/29 08:50:51;;;;;;;0.75;0.30;;;;;;;19.66;43.54;102067.38;4947286;29;20203;-41
2022/01/29 08:53:18;;;;;;;1.02;0.38;;;;;;;19.67;43.60;102055.81;4947630;29;20046;-41
2022/01/29 08:55:44;;;;;;;0.85;0.30;;;;;;;19.69;43.56;102060.94;4941150;29;20031;-41
2022/01/29 08:58:10;;;;;;;1.27;0.40;;;;;;;19.69;43.84;102058.31;4938576;29;20035;-44
2022/01/29 09:00:37;;;;;;;0.68;0.30;;;;;;;19.71;43.39;102051.03;4944012;29;20435;-41
2022/01/29 09:03:04;;;;;;;1.20;0.43;;;;;;;19.73;43.27;102054.34;4934616;29;20404;-46
2022/01/29 09:05:32;;;;;;;2.30;0.50;;;;;;;19.73;43.27;102054.34;4934337;28;20066;-40
2022/01/29 09:07:58;;;;;;;3.95;0.50;;;;;;;19.73;43.49;102043.75;4924737;29;20122;-42
2022/01/29 09:10:23;;;;;;;1.52;0.50;;;;;;;19.73;43.21;102043.75;4937014;29;20019;-41
2022/01/29 09:12:49;;;;;;;0.95;0.30;;;;;;;19.73;43.06;102044.59;4927431;29;20592;-41
2022/01/29 09:15:15;;;;;;;0.90;0.30;;;;;;;19.73;43.18;102033.19;4930835;29;20046;-40
2022/01/29 09:17:41;;;;;;;1.40;0.40;;;;;;;19.73;43.40;102033.19;4943112;28;20443;-46
2022/01/29 09:20:10;;;;;;;2.40;0.43;;;;;;;19.75;43.71;102032.03;4933036;28;20039;-40
2022/01/29 09:22:38;;;;;;;0.60;0.30;;;;;;;19.79;43.53;102032.53;4946967;29;20383;-40
2022/01/29 09:25:04;;;;;;;2.58;0.40;;;;;;;19.78;44.01;102022.94;4920555;29;20039;-42
2022/01/29 09:27:30;;;;;;;3.55;0.30;;;;;;;19.74;44.27;102030.38;4935691;28;20050;-46
2022/01/29 09:29:56;;;;;;;1.95;0.40;;;;;;;19.71;44.70;102030.69;4931716;29;20364;-45
2022/01/29 09:32:21;;;;;;;2.53;0.50;;;;;;;19.71;45.56;102029.88;4936614;29;20565;-40
2022/01/29 09:34:47;;;;;;;3.97;0.90;;;;;;;19.66;45.47;102032.19;4937043;29;20051;-39
2022/01/29 09:37:13;;;;;;;1.38;0.43;;;;;;;19.63;45.67;102028.06;4943077;29;20511;-45
2022/01/29 09:39:38;;;;;;;7.30;0.70;;;;;;;19.64;45.43;102026.25;4921505;29;20090;-40
2022/01/29 09:42:04;;;;;;;4.30;0.68;;;;;;;19.63;45.54;102027.22;4927138;29;20542;-43
2022/01/29 09:44:31;;;;;;;5.68;0.47;;;;;;;19.63;45.77;102017.47;4928411;29;20398;-46
2022/01/29 09:46:58;;;;;;;1.70;0.30;;;;;;;19.64;45.80;102023.59;4918763;29;20039;-39
2022/01/29 09:49:24;;;;;;;2.22;0.40;;;;;;;19.63;45.81;102019.31;4944702;28;20035;-40
2022/01/29 09:51:49;;;;;;;5.05;0.70;;;;;;;19.62;45.44;102020.28;4939678;29;20028;-39
2022/01/29 09:54:15;;;;;;;6.82;0.30;;;;;;;19.61;45.59;102018.63;4932292;29;20035;-42
2022/01/29 09:56:41;;;;;;;1.15;0.22;;;;;;;19.62;45.54;102018.47;4939355;29;20023;-42
2022/01/29 09:59:07;;;;;;;1.77;0.30;;;;;;;19.64;45.37;102023.59;4934652;29;21117;-45
2022/01/29 10:01:32;;;;;;;6.90;0.63;;;;;;;19.62;45.34;102028.22;4941967;29;20032;-44
2022/01/29 10:04:03;;;;;;;4.78;0.50;;;;;;;19.62;45.34;102025.59;4939975;29;20038;-45
2022/01/29 10:06:30;;;;;;;4.35;0.45;;;;;;;19.60;45.21;102015.16;4951123;29;20062;-46
2022/01/29 10:08:56;;;;;;;1.77;0.60;;;;;;;19.57;44.56;102017.31;4934288;29;20119;-49
2022/01/29 10:11:25;;;;;;;1.65;0.60;;;;;;;19.55;44.23;102015.66;4934315;28;20087;-42
2022/01/29 10:13:51;;;;;;;3.78;0.65;;;;;;;19.54;43.88;102013.19;4935869;29;20082;-41
2022/01/29 10:16:25;;;;;;;3.53;0.93;;;;;;;19.51;43.74;102010.88;4924582;29;20035;-47
2022/01/29 10:19:09;;;;;;;3.80;1.10;;;;;;;19.48;42.33;102014.63;4944658;29;20156;-43
2022/01/29 10:21:45;;;;;;;7.72;0.98;;;;;;;19.48;42.48;102013.81;4941468;29;20721;-53
2022/01/29 10:24:13;;;;;;;5.60;1.10;;;;;;;19.48;42.33;102014.63;4930805;28;20711;-43
2022/01/29 10:26:44;;;;;;;4.30;1.77;;;;;;;19.46;40.20;102015.78;4910539;29;20501;-44
2022/01/29 10:29:17;;;;;;;2.60;1.48;;;;;;;19.45;39.51;102009.69;4936785;28;20057;-45
2022/01/29 10:31:51;;;;;;;3.72;1.13;;;;;;;19.45;40.03;102017.59;4921199;29;20133;-41
2022/01/29 10:34:32;;;;;;;3.53;0.90;;;;;;;19.43;39.82;102011.66;4919455;29;20458;-44
2022/01/29 10:37:19;;;;;;;3.47;1.20;;;;;;;19.40;39.84;102004.06;4932520;28;20045;-43
2022/01/29 10:39:56;;;;;;;4.35;1.02;;;;;;;19.39;39.76;102002.41;4940863;28;20063;-42
2022/01/29 10:42:26;;;;;;;11.80;1.48;;;;;;;19.40;39.68;101990.84;4944445;28;20533;-40
2022/01/29 10:44:54;;;;;;;2.50;0.90;;;;;;;19.40;39.70;101995.31;4932694;29;20051;-43
2022/01/29 10:47:20;;;;;;;3.38;1.13;;;;;;;19.38;39.58;101992.00;4933476;29;20031;-43
2022/01/29 10:50:02;;;;;;;2.35;1.02;;;;;;;19.35;39.49;101985.25;4938896;29;20184;-45
2022/01/29 10:52:35;;;;;;;6.88;1.08;;;;;;;19.30;38.84;101990.22;4924795;28;20063;-43
2022/01/29 10:55:04;;;;;;;3.67;1.52;;;;;;;19.30;38.70;101984.94;4936426;29;20066;-43
2022/01/29 10:57:40;;;;;;;2.63;1.55;;;;;;;19.26;37.39;101978.31;4934605;29;20039;-42
2022/01/29 11:00:18;;;;;;;2.75;1.38;;;;;;;19.25;36.86;101966.09;4923897;29;20027;-42
2022/01/29 11:02:45;;;;;;;2.67;1.40;;;;;;;19.21;36.04;101970.88;4942442;28;20071;-42
2022/01/29 11:05:11;;;;;;;4.82;1.88;;;;;;;19.19;35.60;101966.75;4928524;29;20137;-42
2022/01/29 11:07:37;;;;;;;4.57;2.00;;;;;;;19.20;35.60;101973.69;4941217;28;20031;-42
2022/01/29 11:10:06;;;;;;;3.38;1.73;;;;;;;19.20;35.97;101971.03;4923707;28;20031;-43
2022/01/29 11:12:32;;;;;;;3.38;1.48;;;;;;;19.18;35.92;101970.38;4927073;29;20478;-50
2022/01/29 11:15:00;;;;;;;6.15;1.63;;;;;;;19.16;35.88;101967.91;4945937;28;20035;-44
2022/01/29 11:17:27;;;;;;;3.50;1.85;;;;;;;19.14;35.45;101951.38;4940538;28;20031;-44
2022/01/29 11:19:53;;;;;;;6.22;2.20;;;;;;;19.13;35.76;101947.09;4925480;29;20130;-43
2022/01/29 11:22:22;;;;;;;4.72;1.50;;;;;;;19.13;36.08;101946.28;4917209;29;20039;-40
2022/01/29 11:24:54;;;;;;;4.97;1.58;;;;;;;19.14;36.35;101937.34;4939132;29;20047;-42
2022/01/29 11:27:26;;;;;;;3.15;1.45;;;;;;;19.12;36.94;101932.22;4942805;28;20031;-39
2022/01/29 11:30:02;;;;;;;3.50;1.67;;;;;;;19.11;37.41;101927.13;4936513;28;20098;-38
2022/01/29 11:32:32;;;;;;;2.20;1.30;;;;;;;19.12;37.98;101924.31;4936002;28;20039;-40
2022/01/29 11:35:15;;;;;;;3.97;1.88;;;;;;;19.13;38.49;101917.22;4922259;29;20065;-41